Terminal Aerodrome Forecast
Issued by NWS Missoula, MT

Home | Current Version | Previous Version | Text Only | Print | Product List | Glossary On
Versions: 1 2 3 4 5 6 7 8 9 10 11 12 13 14 15 16
000
FTUS45 KMSO 010520
TAFMSO
TAF
KMSO 010520Z 0106/0206 VRB03KT P6SM VCSH BKN050 OVC080
     FM011000 VRB03KT P6SM BKN080
     FM012000 29014KT P6SM SCT100
     FM020500 26015G25KT P6SM SCT100=

USA.gov is the U.S. government's official web portal to all federal, state and local government web resources and services.